Wan Hai 501 — S6AS7 — position and weather

sailwx.info

Track history (hours):
 
Tides and Currents Weather Stations Pressure Air Temp Water Temp Dewpoint Dewpoint Depression Visibility Wind Speed Wind Dir Waves Ship Positions

Wan Hai 501

Last reported at 2014-Dec-19 01:10 UTC. Time now 2014-Dec-19 08:40 UTC.
Position N 30°28' E 123°03'.

Length 268 m; draft 9.1 m.

Type: Cargo ship. MMSI: 563382000.

Date/timePositionNaut miles runAvg speedWind from/ knotsBaromVisibWave heightAir tempDewpointWater temp
2014-Dec-19 01:10N 30°28' E 123°03'5615.1
2014-Dec-18 21:27N 29°33' E 122°51'2714.2
2014-Dec-18 19:33N 29°09' E 122°37'35015.1
2014-Dec-17 20:25N 24°16' E 119°03'14115.8
2014-Dec-17 11:28N 22°53' E 116°59'1616.8
2014-Dec-17 10:32N 22°47' E 116°43'12016.6
2014-Dec-17 03:19N 22°09' E 114°39'1316.8
2014-Dec-17 02:33N 22°08' E 114°26'1515.0
2014-Dec-17 01:33N 22°12' E 114°10'1110.7
2014-Dec-17 00:29N 22°21' E 114°03'9 9.7
2014-Dec-16 23:33N 22°24' E 113°53'3 2.7
2014-Dec-16 22:23N 22°27' E 113°53'0 0.0
2014-Dec-16 21:17N 22°27' E 113°53'0 0.0
2014-Dec-16 20:11N 22°27' E 113°53'0 0.0
2014-Dec-16 19:29N 22°27' E 113°53'0 0.0
2014-Dec-16 18:29N 22°27' E 113°53'0 0.0
2014-Dec-16 17:23N 22°27' E 113°53'0 0.0
2014-Dec-16 16:11N 22°27' E 113°53'0 0.0
2014-Dec-16 15:23N 22°27' E 113°53'0 0.0
2014-Dec-16 14:29N 22°27' E 113°53'0 0.0
2014-Dec-16 13:11N 22°27' E 113°53'0 0.0
2014-Dec-16 12:17N 22°27' E 113°53'0 0.0
2014-Dec-16 11:29N 22°27' E 113°53'0 0.0
2014-Dec-16 10:29N 22°27' E 113°53'0 0.0
2014-Dec-16 09:29N 22°27' E 113°53'0 0.0
2014-Dec-16 08:29N 22°27' E 113°53'0 0.0
2014-Dec-16 07:29N 22°27' E 113°53'0 0.0
2014-Dec-16 06:29N 22°27' E 113°53'0 0.0
2014-Dec-16 05:05N 22°27' E 113°53'0 0.0
2014-Dec-16 04:23N 22°27' E 113°53'0 0.0
2014-Dec-16 03:29N 22°27' E 113°53'1 0.7
2014-Dec-16 02:30N 22°26' E 113°53'28 1.2
2014-Dec-15 04:10N 22°02' E 114°07'1316.7
2014-Dec-15 03:23N 21°52' E 113°57'  
2014-Dec-11 19:09N 01°17' E 104°17'1016.9
2014-Dec-11 18:32N 01°15' E 104°07'1616.6
2014-Dec-11 17:33N 01°11' E 103°51'8 8.5
2014-Dec-11 16:33N 01°17' E 103°45'1 1.2
2014-Dec-11 15:32N 01°17' E 103°46'0 0.0
2014-Dec-11 14:29N 01°17' E 103°46'0 0.0
2014-Dec-11 13:32N 01°17' E 103°46'0 0.0
2014-Dec-11 12:32N 01°17' E 103°46'0 0.0
2014-Dec-11 11:29N 01°17' E 103°46'0 0.0
2014-Dec-11 10:29N 01°17' E 103°46'0 0.0
2014-Dec-11 09:32N 01°17' E 103°46'0 0.0
2014-Dec-11 08:32N 01°17' E 103°46'0 0.0
2014-Dec-11 07:26N 01°17' E 103°46'0 0.0
2014-Dec-11 06:29N 01°17' E 103°46'0 0.0
2014-Dec-11 05:29N 01°17' E 103°46'0 0.0
2014-Dec-11 04:29N 01°17' E 103°46'0 0.0
2014-Dec-11 03:29N 01°17' E 103°46'0 0.0
2014-Dec-11 02:32N 01°17' E 103°46'0 0.0
2014-Dec-11 01:32N 01°17' E 103°46'0 0.0
2014-Dec-11 00:32N 01°17' E 103°46'1 1.1
2014-Dec-10 23:33N 01°17' E 103°45'4 3.9
2014-Dec-10 22:34N 01°14' E 103°47'0 0.1
2014-Dec-10 21:18N 01°14' E 103°47'0 0.0
2014-Dec-10 20:12N 01°14' E 103°47'0 0.0
2014-Dec-10 19:30N 01°14' E 103°47'0 0.1
2014-Dec-10 18:27N 01°14' E 103°47'0 0.1
2014-Dec-10 17:30N 01°14' E 103°47'0 0.1
2014-Dec-10 16:33N 01°14' E 103°47'0 0.0
2014-Dec-10 14:33N 01°14' E 103°47'0 0.1
2014-Dec-10 13:30N 01°14' E 103°47'3 0.4
2014-Dec-10 07:33N 01°15' E 103°45'  
Track history (hours):
 
Tides and Currents Weather Stations Pressure Air Temp Water Temp Dewpoint Dewpoint Depression Visibility Wind Speed Wind Dir Waves Ship Positions

Wan Hai 501

Last reported at 2014-Dec-19 01:10 UTC. Time now 2014-Dec-19 08:40 UTC.
Position N 30°28' E 123°03'.

Length 268 m; draft 9.1 m.

Type: Cargo ship. MMSI: 563382000.

Date/timePositionNaut miles runAvg speedWind from/ knotsBaromVisibWave heightAir tempDewpointWater temp
2014-Dec-19 01:10N 30°28' E 123°03'5615.1
2014-Dec-18 21:27N 29°33' E 122°51'2714.2
2014-Dec-18 19:33N 29°09' E 122°37'35015.1
2014-Dec-17 20:25N 24°16' E 119°03'14115.8
2014-Dec-17 11:28N 22°53' E 116°59'1616.8
2014-Dec-17 10:32N 22°47' E 116°43'12016.6
2014-Dec-17 03:19N 22°09' E 114°39'1316.8
2014-Dec-17 02:33N 22°08' E 114°26'1515.0
2014-Dec-17 01:33N 22°12' E 114°10'1110.7
2014-Dec-17 00:29N 22°21' E 114°03'9 9.7
2014-Dec-16 23:33N 22°24' E 113°53'3 2.7
2014-Dec-16 22:23N 22°27' E 113°53'0 0.0
2014-Dec-16 21:17N 22°27' E 113°53'0 0.0
2014-Dec-16 20:11N 22°27' E 113°53'0 0.0
2014-Dec-16 19:29N 22°27' E 113°53'0 0.0
2014-Dec-16 18:29N 22°27' E 113°53'0 0.0
2014-Dec-16 17:23N 22°27' E 113°53'0 0.0
2014-Dec-16 16:11N 22°27' E 113°53'0 0.0
2014-Dec-16 15:23N 22°27' E 113°53'0 0.0
2014-Dec-16 14:29N 22°27' E 113°53'0 0.0
2014-Dec-16 13:11N 22°27' E 113°53'0 0.0
2014-Dec-16 12:17N 22°27' E 113°53'0 0.0
2014-Dec-16 11:29N 22°27' E 113°53'0 0.0
2014-Dec-16 10:29N 22°27' E 113°53'0 0.0
2014-Dec-16 09:29N 22°27' E 113°53'0 0.0
2014-Dec-16 08:29N 22°27' E 113°53'0 0.0
2014-Dec-16 07:29N 22°27' E 113°53'0 0.0
2014-Dec-16 06:29N 22°27' E 113°53'0 0.0
2014-Dec-16 05:05N 22°27' E 113°53'0 0.0
2014-Dec-16 04:23N 22°27' E 113°53'0 0.0
2014-Dec-16 03:29N 22°27' E 113°53'1 0.7
2014-Dec-16 02:30N 22°26' E 113°53'28 1.2
2014-Dec-15 04:10N 22°02' E 114°07'1316.7
2014-Dec-15 03:23N 21°52' E 113°57'  
2014-Dec-11 19:09N 01°17' E 104°17'1016.9
2014-Dec-11 18:32N 01°15' E 104°07'1616.6
2014-Dec-11 17:33N 01°11' E 103°51'8 8.5
2014-Dec-11 16:33N 01°17' E 103°45'1 1.2
2014-Dec-11 15:32N 01°17' E 103°46'0 0.0
2014-Dec-11 14:29N 01°17' E 103°46'0 0.0
2014-Dec-11 13:32N 01°17' E 103°46'0 0.0
2014-Dec-11 12:32N 01°17' E 103°46'0 0.0
2014-Dec-11 11:29N 01°17' E 103°46'0 0.0
2014-Dec-11 10:29N 01°17' E 103°46'0 0.0
2014-Dec-11 09:32N 01°17' E 103°46'0 0.0
2014-Dec-11 08:32N 01°17' E 103°46'0 0.0
2014-Dec-11 07:26N 01°17' E 103°46'0 0.0
2014-Dec-11 06:29N 01°17' E 103°46'0 0.0
2014-Dec-11 05:29N 01°17' E 103°46'0 0.0
2014-Dec-11 04:29N 01°17' E 103°46'0 0.0
2014-Dec-11 03:29N 01°17' E 103°46'0 0.0
2014-Dec-11 02:32N 01°17' E 103°46'0 0.0
2014-Dec-11 01:32N 01°17' E 103°46'0 0.0
2014-Dec-11 00:32N 01°17' E 103°46'1 1.1
2014-Dec-10 23:33N 01°17' E 103°45'4 3.9
2014-Dec-10 22:34N 01°14' E 103°47'0 0.1
2014-Dec-10 21:18N 01°14' E 103°47'0 0.0
2014-Dec-10 20:12N 01°14' E 103°47'0 0.0
2014-Dec-10 19:30N 01°14' E 103°47'0 0.1
2014-Dec-10 18:27N 01°14' E 103°47'0 0.1
2014-Dec-10 17:30N 01°14' E 103°47'0 0.1
2014-Dec-10 16:33N 01°14' E 103°47'0 0.0
2014-Dec-10 14:33N 01°14' E 103°47'0 0.1
2014-Dec-10 13:30N 01°14' E 103°47'3 0.4
2014-Dec-10 07:33N 01°15' E 103°45'  

Dump ship's entire track history